sensor_id;sensor_type;location;lat;lon;timestamp;temperature;humidity
14670;DHT22;7423;48.722;9.350;2022-08-11T00:01:24;22.50;72.10
14670;DHT22;7423;48.722;9.350;2022-08-11T00:03:55;22.40;72.30
14670;DHT22;7423;48.722;9.350;2022-08-11T00:06:26;22.50;72.50
14670;DHT22;7423;48.722;9.350;2022-08-11T00:08:56;22.50;72.60
14670;DHT22;7423;48.722;9.350;2022-08-11T00:11:43;22.40;72.70
14670;DHT22;7423;48.722;9.350;2022-08-11T00:14:18;22.40;73.00
14670;DHT22;7423;48.722;9.350;2022-08-11T00:17:12;22.30;73.40
14670;DHT22;7423;48.722;9.350;2022-08-11T00:19:45;22.20;73.40
14670;DHT22;7423;48.722;9.350;2022-08-11T00:22:36;22.20;73.90
14670;DHT22;7423;48.722;9.350;2022-08-11T00:27:41;22.40;74.10
14670;DHT22;7423;48.722;9.350;2022-08-11T00:30:10;22.00;73.90
14670;DHT22;7423;48.722;9.350;2022-08-11T00:32:42;22.00;73.90
14670;DHT22;7423;48.722;9.350;2022-08-11T00:35:13;22.00;74.00
14670;DHT22;7423;48.722;9.350;2022-08-11T00:38:02;22.00;73.90
14670;DHT22;7423;48.722;9.350;2022-08-11T00:43:23;21.90;74.30
14670;DHT22;7423;48.722;9.350;2022-08-11T00:49:23;21.80;75.00
14670;DHT22;7423;48.722;9.350;2022-08-11T01:04:08;21.60;75.40
14670;DHT22;7423;48.722;9.350;2022-08-11T01:06:51;21.60;75.40
14670;DHT22;7423;48.722;9.350;2022-08-11T01:09:46;21.50;75.70
14670;DHT22;7423;48.722;9.350;2022-08-11T01:12:34;21.50;75.80
14670;DHT22;7423;48.722;9.350;2022-08-11T01:38:46;21.20;77.00
14670;DHT22;7423;48.722;9.350;2022-08-11T01:41:32;21.10;77.30
14670;DHT22;7423;48.722;9.350;2022-08-11T01:48:01;21.10;77.40
14670;DHT22;7423;48.722;9.350;2022-08-11T01:56:32;21.00;77.70
14670;DHT22;7423;48.722;9.350;2022-08-11T02:02:22;20.90;78.30
14670;DHT22;7423;48.722;9.350;2022-08-11T02:06:09;21.00;78.00
14670;DHT22;7423;48.722;9.350;2022-08-11T02:11:38;20.80;77.90
14670;DHT22;7423;48.722;9.350;2022-08-11T02:14:30;20.80;78.50
14670;DHT22;7423;48.722;9.350;2022-08-11T02:17:20;20.80;78.70
14670;DHT22;7423;48.722;9.350;2022-08-11T02:20:03;20.80;78.70
14670;DHT22;7423;48.722;9.350;2022-08-11T02:23:02;20.80;78.50
14670;DHT22;7423;48.722;9.350;2022-08-11T02:26:31;20.80;78.60
14670;DHT22;7423;48.722;9.350;2022-08-11T02:35:11;20.70;78.60
14670;DHT22;7423;48.722;9.350;2022-08-11T02:43:45;20.60;79.40
14670;DHT22;7423;48.722;9.350;2022-08-11T02:46:23;20.50;79.50
14670;DHT22;7423;48.722;9.350;2022-08-11T02:49:09;20.50;79.40
14670;DHT22;7423;48.722;9.350;2022-08-11T02:55:09;20.50;79.50
14670;DHT22;7423;48.722;9.350;2022-08-11T03:03:59;20.40;79.50
14670;DHT22;7423;48.722;9.350;2022-08-11T03:06:49;20.50;79.60
14670;DHT22;7423;48.722;9.350;2022-08-11T03:09:29;20.40;79.60
14670;DHT22;7423;48.722;9.350;2022-08-11T03:12:18;20.40;79.70
14670;DHT22;7423;48.722;9.350;2022-08-11T03:15:21;20.40;79.90
14670;DHT22;7423;48.722;9.350;2022-08-11T03:18:28;20.30;80.00
14670;DHT22;7423;48.722;9.350;2022-08-11T03:21:05;20.30;80.50
14670;DHT22;7423;48.722;9.350;2022-08-11T03:26:38;20.20;81.10
14670;DHT22;7423;48.722;9.350;2022-08-11T03:29:19;20.10;81.20
14670;DHT22;7423;48.722;9.350;2022-08-11T03:32:18;20.10;81.20
14670;DHT22;7423;48.722;9.350;2022-08-11T03:34:51;20.20;80.90
14670;DHT22;7423;48.722;9.350;2022-08-11T03:37:40;20.20;80.70
14670;DHT22;7423;48.722;9.350;2022-08-11T03:40:36;20.20;80.70
14670;DHT22;7423;48.722;9.350;2022-08-11T03:43:56;20.10;80.60
14670;DHT22;7423;48.722;9.350;2022-08-11T03:50:04;20.10;81.20
14670;DHT22;7423;48.722;9.350;2022-08-11T03:53:02;20.10;81.20
14670;DHT22;7423;48.722;9.350;2022-08-11T03:55:53;20.10;81.70
14670;DHT22;7423;48.722;9.350;2022-08-11T04:11:16;19.80;82.70
14670;DHT22;7423;48.722;9.350;2022-08-11T04:27:18;19.80;83.20
14670;DHT22;7423;48.722;9.350;2022-08-11T04:33:19;19.80;83.00
14670;DHT22;7423;48.722;9.350;2022-08-11T04:36:17;19.80;82.60
14670;DHT22;7423;48.722;9.350;2022-08-11T04:39:46;19.80;82.60
14670;DHT22;7423;48.722;9.350;2022-08-11T04:45:49;19.70;82.90
14670;DHT22;7423;48.722;9.350;2022-08-11T04:49:05;19.70;82.60
14670;DHT22;7423;48.722;9.350;2022-08-11T04:52:22;19.70;83.10
14670;DHT22;7423;48.722;9.350;2022-08-11T05:08:28;19.70;83.10
14670;DHT22;7423;48.722;9.350;2022-08-11T05:11:36;19.80;82.90
14670;DHT22;7423;48.722;9.350;2022-08-11T05:17:03;19.80;82.70
14670;DHT22;7423;48.722;9.350;2022-08-11T05:19:52;19.80;82.70
14670;DHT22;7423;48.722;9.350;2022-08-11T05:22:43;19.90;82.80
14670;DHT22;7423;48.722;9.350;2022-08-11T05:25:34;20.00;82.50
14670;DHT22;7423;48.722;9.350;2022-08-11T05:28:49;20.00;82.40
14670;DHT22;7423;48.722;9.350;2022-08-11T05:31:54;20.00;82.20
14670;DHT22;7423;48.722;9.350;2022-08-11T05:34:51;20.10;82.40
14670;DHT22;7423;48.722;9.350;2022-08-11T05:40:08;20.20;82.20
14670;DHT22;7423;48.722;9.350;2022-08-11T05:43:02;20.20;81.80
14670;DHT22;7423;48.722;9.350;2022-08-11T05:46:01;20.30;82.20
14670;DHT22;7423;48.722;9.350;2022-08-11T05:48:48;20.30;82.10
14670;DHT22;7423;48.722;9.350;2022-08-11T05:51:38;20.40;81.60
14670;DHT22;7423;48.722;9.350;2022-08-11T05:54:39;20.40;81.70
14670;DHT22;7423;48.722;9.350;2022-08-11T05:57:35;20.50;81.40
14670;DHT22;7423;48.722;9.350;2022-08-11T06:00:17;20.50;81.30
14670;DHT22;7423;48.722;9.350;2022-08-11T06:02:52;20.60;81.10
14670;DHT22;7423;48.722;9.350;2022-08-11T06:05:23;20.70;81.30
14670;DHT22;7423;48.722;9.350;2022-08-11T06:07:53;20.70;81.20
14670;DHT22;7423;48.722;9.350;2022-08-11T06:10:31;20.80;81.10
14670;DHT22;7423;48.722;9.350;2022-08-11T06:13:01;20.80;81.20
14670;DHT22;7423;48.722;9.350;2022-08-11T06:15:30;20.90;80.80
14670;DHT22;7423;48.722;9.350;2022-08-11T06:17:59;20.90;80.60
14670;DHT22;7423;48.722;9.350;2022-08-11T06:20:28;20.90;80.50
14670;DHT22;7423;48.722;9.350;2022-08-11T06:23:05;21.00;80.00
14670;DHT22;7423;48.722;9.350;2022-08-11T06:25:34;21.00;80.10
14670;DHT22;7423;48.722;9.350;2022-08-11T06:28:06;21.10;80.00
14670;DHT22;7423;48.722;9.350;2022-08-11T06:30:40;21.10;80.00
14670;DHT22;7423;48.722;9.350;2022-08-11T06:33:17;21.10;79.70
14670;DHT22;7423;48.722;9.350;2022-08-11T06:36:07;21.20;79.60
14670;DHT22;7423;48.722;9.350;2022-08-11T06:45:27;21.40;79.20
14670;DHT22;7423;48.722;9.350;2022-08-11T06:47:56;21.40;79.10
14670;DHT22;7423;48.722;9.350;2022-08-11T06:50:28;21.40;80.40
14670;DHT22;7423;48.722;9.350;2022-08-11T06:53:17;21.40;79.40
14670;DHT22;7423;48.722;9.350;2022-08-11T06:55:47;21.40;79.30
14670;DHT22;7423;48.722;9.350;2022-08-11T06:58:39;21.50;79.30
14670;DHT22;7423;48.722;9.350;2022-08-11T07:01:39;21.50;79.30
14670;DHT22;7423;48.722;9.350;2022-08-11T07:04:23;21.50;78.90
14670;DHT22;7423;48.722;9.350;2022-08-11T07:07:23;21.50;78.80
14670;DHT22;7423;48.722;9.350;2022-08-11T07:11:18;21.60;79.30
14670;DHT22;7423;48.722;9.350;2022-08-11T07:14:31;21.70;78.00
14670;DHT22;7423;48.722;9.350;2022-08-11T07:17:40;21.80;77.80
14670;DHT22;7423;48.722;9.350;2022-08-11T07:20:09;21.80;77.60
14670;DHT22;7423;48.722;9.350;2022-08-11T07:22:59;21.80;77.40
14670;DHT22;7423;48.722;9.350;2022-08-11T07:25:51;21.90;77.00
14670;DHT22;7423;48.722;9.350;2022-08-11T07:28:41;22.00;76.60
14670;DHT22;7423;48.722;9.350;2022-08-11T07:36:41;22.20;75.50
14670;DHT22;7423;48.722;9.350;2022-08-11T07:39:20;22.30;75.50
14670;DHT22;7423;48.722;9.350;2022-08-11T07:42:13;22.40;75.40
14670;DHT22;7423;48.722;9.350;2022-08-11T07:44:42;22.50;75.10
14670;DHT22;7423;48.722;9.350;2022-08-11T07:47:28;22.50;74.80
14670;DHT22;7423;48.722;9.350;2022-08-11T07:50:14;22.60;74.80
14670;DHT22;7423;48.722;9.350;2022-08-11T07:53:00;22.70;74.30
14670;DHT22;7423;48.722;9.350;2022-08-11T07:55:28;22.80;74.00
14670;DHT22;7423;48.722;9.350;2022-08-11T07:58:20;22.80;74.10
14670;DHT22;7423;48.722;9.350;2022-08-11T08:01:23;22.80;74.00
14670;DHT22;7423;48.722;9.350;2022-08-11T08:04:12;23.00;73.60
14670;DHT22;7423;48.722;9.350;2022-08-11T08:07:01;23.00;73.50
14670;DHT22;7423;48.722;9.350;2022-08-11T08:09:49;23.20;73.30
14670;DHT22;7423;48.722;9.350;2022-08-11T08:12:40;23.30;73.10
14670;DHT22;7423;48.722;9.350;2022-08-11T08:15:27;23.30;72.30
14670;DHT22;7423;48.722;9.350;2022-08-11T08:18:12;24.30;72.70
14670;DHT22;7423;48.722;9.350;2022-08-11T08:20:53;23.60;72.30
14670;DHT22;7423;48.722;9.350;2022-08-11T08:23:25;23.60;72.30
14670;DHT22;7423;48.722;9.350;2022-08-11T08:26:03;23.60;72.10
14670;DHT22;7423;48.722;9.350;2022-08-11T08:28:53;23.60;72.10
14670;DHT22;7423;48.722;9.350;2022-08-11T08:31:42;23.70;71.70
14670;DHT22;7423;48.722;9.350;2022-08-11T08:34:09;23.70;71.30
14670;DHT22;7423;48.722;9.350;2022-08-11T08:36:39;23.80;71.40
14670;DHT22;7423;48.722;9.350;2022-08-11T08:39:12;23.80;70.90
14670;DHT22;7423;48.722;9.350;2022-08-11T08:41:40;24.10;68.40
14670;DHT22;7423;48.722;9.350;2022-08-11T08:44:10;24.00;69.10
14670;DHT22;7423;48.722;9.350;2022-08-11T08:46:58;24.10;69.10
14670;DHT22;7423;48.722;9.350;2022-08-11T08:49:32;24.20;68.80
14670;DHT22;7423;48.722;9.350;2022-08-11T08:52:07;24.30;68.50
14670;DHT22;7423;48.722;9.350;2022-08-11T08:54:57;24.40;67.90
14670;DHT22;7423;48.722;9.350;2022-08-11T08:57:28;24.50;67.90
14670;DHT22;7423;48.722;9.350;2022-08-11T09:00:07;24.50;66.50
14670;DHT22;7423;48.722;9.350;2022-08-11T09:02:41;24.60;65.30
14670;DHT22;7423;48.722;9.350;2022-08-11T09:05:09;24.70;65.50
14670;DHT22;7423;48.722;9.350;2022-08-11T09:07:38;26.50;67.00
14670;DHT22;7423;48.722;9.350;2022-08-11T09:10:08;24.80;65.30
14670;DHT22;7423;48.722;9.350;2022-08-11T09:12:38;24.90;65.30
14670;DHT22;7423;48.722;9.350;2022-08-11T09:15:07;25.00;64.60
14670;DHT22;7423;48.722;9.350;2022-08-11T09:17:50;25.20;64.20
14670;DHT22;7423;48.722;9.350;2022-08-11T09:20:24;25.20;64.10
14670;DHT22;7423;48.722;9.350;2022-08-11T09:22:56;25.20;64.10
14670;DHT22;7423;48.722;9.350;2022-08-11T09:26:03;25.30;63.40
14670;DHT22;7423;48.722;9.350;2022-08-11T09:28:57;25.40;63.10
14670;DHT22;7423;48.722;9.350;2022-08-11T09:31:24;25.40;62.80
14670;DHT22;7423;48.722;9.350;2022-08-11T09:33:54;25.50;62.30
14670;DHT22;7423;48.722;9.350;2022-08-11T09:36:21;25.50;62.20
14670;DHT22;7423;48.722;9.350;2022-08-11T09:39:07;25.70;61.70
14670;DHT22;7423;48.722;9.350;2022-08-11T09:41:57;25.70;61.60
14670;DHT22;7423;48.722;9.350;2022-08-11T09:44:30;25.70;61.20
14670;DHT22;7423;48.722;9.350;2022-08-11T09:47:21;25.80;61.70
14670;DHT22;7423;48.722;9.350;2022-08-11T09:49:56;25.90;60.40
14670;DHT22;7423;48.722;9.350;2022-08-11T09:52:28;25.70;60.00
14670;DHT22;7423;48.722;9.350;2022-08-11T09:54:57;26.00;59.90
14670;DHT22;7423;48.722;9.350;2022-08-11T09:57:25;26.20;59.60
14670;DHT22;7423;48.722;9.350;2022-08-11T10:00:11;26.30;59.20
14670;DHT22;7423;48.722;9.350;2022-08-11T10:02:45;26.30;59.30
14670;DHT22;7423;48.722;9.350;2022-08-11T10:05:17;26.40;59.10
14670;DHT22;7423;48.722;9.350;2022-08-11T10:08:04;26.50;58.40
14670;DHT22;7423;48.722;9.350;2022-08-11T10:10:37;26.60;58.20
14670;DHT22;7423;48.722;9.350;2022-08-11T10:13:09;26.60;58.00
14670;DHT22;7423;48.722;9.350;2022-08-11T10:16:01;26.60;58.10
14670;DHT22;7423;48.722;9.350;2022-08-11T10:18:42;26.70;57.60
14670;DHT22;7423;48.722;9.350;2022-08-11T10:24:42;26.80;57.80
14670;DHT22;7423;48.722;9.350;2022-08-11T10:27:29;26.80;58.30
14670;DHT22;7423;48.722;9.350;2022-08-11T10:30:16;26.80;57.20
14670;DHT22;7423;48.722;9.350;2022-08-11T10:33:02;26.90;55.40
14670;DHT22;7423;48.722;9.350;2022-08-11T10:36:04;27.00;56.20
14670;DHT22;7423;48.722;9.350;2022-08-11T10:38:43;27.00;56.30
14670;DHT22;7423;48.722;9.350;2022-08-11T10:41:13;27.10;56.10
14670;DHT22;7423;48.722;9.350;2022-08-11T10:43:59;27.20;56.60
14670;DHT22;7423;48.722;9.350;2022-08-11T10:46:29;27.30;56.30
14670;DHT22;7423;48.722;9.350;2022-08-11T10:49:16;27.30;54.00
14670;DHT22;7423;48.722;9.350;2022-08-11T10:51:45;27.30;55.20
14670;DHT22;7423;48.722;9.350;2022-08-11T10:54:32;27.30;55.40
14670;DHT22;7423;48.722;9.350;2022-08-11T10:57:18;27.50;54.10
14670;DHT22;7423;48.722;9.350;2022-08-11T11:00:05;27.60;54.70
14670;DHT22;7423;48.722;9.350;2022-08-11T11:02:33;27.60;54.80
14670;DHT22;7423;48.722;9.350;2022-08-11T11:05:11;27.70;55.00
14670;DHT22;7423;48.722;9.350;2022-08-11T11:07:51;27.80;55.10
14670;DHT22;7423;48.722;9.350;2022-08-11T11:10:22;27.90;53.70
14670;DHT22;7423;48.722;9.350;2022-08-11T11:12:58;28.00;53.60
14670;DHT22;7423;48.722;9.350;2022-08-11T11:15:45;28.10;52.40
14670;DHT22;7423;48.722;9.350;2022-08-11T11:18:34;28.20;51.10
14670;DHT22;7423;48.722;9.350;2022-08-11T11:21:06;28.40;52.20
14670;DHT22;7423;48.722;9.350;2022-08-11T11:23:42;28.60;51.80
14670;DHT22;7423;48.722;9.350;2022-08-11T11:29:33;28.80;49.70
14670;DHT22;7423;48.722;9.350;2022-08-11T11:35:23;30.70;50.20
14670;DHT22;7423;48.722;9.350;2022-08-11T11:37:58;33.00;47.80
14670;DHT22;7423;48.722;9.350;2022-08-11T11:40:31;36.00;44.60
14670;DHT22;7423;48.722;9.350;2022-08-11T11:42:59;39.00;40.30
14670;DHT22;7423;48.722;9.350;2022-08-11T11:45:27;41.50;37.70
14670;DHT22;7423;48.722;9.350;2022-08-11T11:47:57;43.90;34.80
14670;DHT22;7423;48.722;9.350;2022-08-11T11:50:30;46.30;32.30
14670;DHT22;7423;48.722;9.350;2022-08-11T11:53:09;48.30;30.20
14670;DHT22;7423;48.722;9.350;2022-08-11T11:55:37;49.60;27.70
14670;DHT22;7423;48.722;9.350;2022-08-11T11:58:05;50.00;27.10
14670;DHT22;7423;48.722;9.350;2022-08-11T12:00:51;50.90;27.20
14670;DHT22;7423;48.722;9.350;2022-08-11T12:03:38;51.90;26.50
14670;DHT22;7423;48.722;9.350;2022-08-11T12:06:06;51.80;26.10
14670;DHT22;7423;48.722;9.350;2022-08-11T12:08:36;51.40;26.30
14670;DHT22;7423;48.722;9.350;2022-08-11T12:11:05;50.60;26.10
14670;DHT22;7423;48.722;9.350;2022-08-11T12:14:03;49.70;26.90
14670;DHT22;7423;48.722;9.350;2022-08-11T12:16:38;48.00;27.40
14670;DHT22;7423;48.722;9.350;2022-08-11T12:19:17;46.00;28.70
14670;DHT22;7423;48.722;9.350;2022-08-11T12:21:47;44.00;29.90
14670;DHT22;7423;48.722;9.350;2022-08-11T12:24:34;42.50;30.00
14670;DHT22;7423;48.722;9.350;2022-08-11T12:27:21;41.00;31.20
14670;DHT22;7423;48.722;9.350;2022-08-11T12:29:54;39.90;31.70
14670;DHT22;7423;48.722;9.350;2022-08-11T12:32:31;39.00;32.00
14670;DHT22;7423;48.722;9.350;2022-08-11T12:35:00;38.10;33.80
14670;DHT22;7423;48.722;9.350;2022-08-11T12:37:34;37.40;35.40
14670;DHT22;7423;48.722;9.350;2022-08-11T12:40:10;36.60;36.50
14670;DHT22;7423;48.722;9.350;2022-08-11T12:43:21;35.70;36.00
14670;DHT22;7423;48.722;9.350;2022-08-11T12:46:10;34.80;38.00
14670;DHT22;7423;48.722;9.350;2022-08-11T12:48:44;34.30;37.40
14670;DHT22;7423;48.722;9.350;2022-08-11T12:51:37;33.90;38.50
14670;DHT22;7423;48.722;9.350;2022-08-11T12:54:58;33.50;39.80
14670;DHT22;7423;48.722;9.350;2022-08-11T12:57:34;33.00;40.40
14670;DHT22;7423;48.722;9.350;2022-08-11T13:00:23;32.80;41.60
14670;DHT22;7423;48.722;9.350;2022-08-11T13:03:10;32.10;41.60
14670;DHT22;7423;48.722;9.350;2022-08-11T13:05:58;32.20;41.60
14670;DHT22;7423;48.722;9.350;2022-08-11T13:08:30;32.10;41.80
14670;DHT22;7423;48.722;9.350;2022-08-11T13:11:01;31.90;42.00
14670;DHT22;7423;48.722;9.350;2022-08-11T13:13:48;31.70;42.10
14670;DHT22;7423;48.722;9.350;2022-08-11T13:16:27;31.70;41.50
14670;DHT22;7423;48.722;9.350;2022-08-11T13:18:59;31.60;42.00
14670;DHT22;7423;48.722;9.350;2022-08-11T13:21:28;31.50;41.70
14670;DHT22;7423;48.722;9.350;2022-08-11T13:23:55;31.40;42.50
14670;DHT22;7423;48.722;9.350;2022-08-11T13:26:32;31.30;42.80
14670;DHT22;7423;48.722;9.350;2022-08-11T13:29:23;31.20;43.00
14670;DHT22;7423;48.722;9.350;2022-08-11T13:31:53;31.20;42.90
14670;DHT22;7423;48.722;9.350;2022-08-11T13:34:23;31.10;43.20
14670;DHT22;7423;48.722;9.350;2022-08-11T13:36:54;31.10;42.70
14670;DHT22;7423;48.722;9.350;2022-08-11T13:39:25;31.10;43.10
14670;DHT22;7423;48.722;9.350;2022-08-11T13:41:56;31.10;42.40
14670;DHT22;7423;48.722;9.350;2022-08-11T13:44:27;31.10;42.50
14670;DHT22;7423;48.722;9.350;2022-08-11T13:46:57;31.10;43.10
14670;DHT22;7423;48.722;9.350;2022-08-11T13:49:28;31.10;42.90
14670;DHT22;7423;48.722;9.350;2022-08-11T13:51:57;31.10;43.40
14670;DHT22;7423;48.722;9.350;2022-08-11T13:54:27;31.10;43.70
14670;DHT22;7423;48.722;9.350;2022-08-11T13:57:00;31.10;41.00
14670;DHT22;7423;48.722;9.350;2022-08-11T13:59:35;31.20;42.10
14670;DHT22;7423;48.722;9.350;2022-08-11T14:02:20;31.20;41.60
14670;DHT22;7423;48.722;9.350;2022-08-11T14:05:04;31.20;42.80
14670;DHT22;7423;48.722;9.350;2022-08-11T14:07:37;31.20;42.80
14670;DHT22;7423;48.722;9.350;2022-08-11T14:10:06;31.20;42.90
14670;DHT22;7423;48.722;9.350;2022-08-11T14:12:36;31.20;42.80
14670;DHT22;7423;48.722;9.350;2022-08-11T14:15:31;31.10;42.90
14670;DHT22;7423;48.722;9.350;2022-08-11T14:18:39;31.10;42.50
14670;DHT22;7423;48.722;9.350;2022-08-11T14:21:00;31.10;42.70
14670;DHT22;7423;48.722;9.350;2022-08-11T14:23:51;31.10;43.50
14670;DHT22;7423;48.722;9.350;2022-08-11T14:26:21;31.20;43.50
14670;DHT22;7423;48.722;9.350;2022-08-11T14:31:53;31.20;43.00
14670;DHT22;7423;48.722;9.350;2022-08-11T14:34:26;31.20;42.50
14670;DHT22;7423;48.722;9.350;2022-08-11T14:36:57;31.20;42.10
14670;DHT22;7423;48.722;9.350;2022-08-11T14:39:31;31.20;42.30
14670;DHT22;7423;48.722;9.350;2022-08-11T14:42:04;31.20;42.80
14670;DHT22;7423;48.722;9.350;2022-08-11T14:44:54;31.30;43.10
14670;DHT22;7423;48.722;9.350;2022-08-11T14:47:46;31.30;42.60
14670;DHT22;7423;48.722;9.350;2022-08-11T14:50:26;31.30;42.00
14670;DHT22;7423;48.722;9.350;2022-08-11T14:53:00;31.30;42.30
14670;DHT22;7423;48.722;9.350;2022-08-11T14:55:40;31.30;42.30
14670;DHT22;7423;48.722;9.350;2022-08-11T14:58:28;31.30;42.90
14670;DHT22;7423;48.722;9.350;2022-08-11T15:00:57;31.40;42.30
14670;DHT22;7423;48.722;9.350;2022-08-11T15:03:28;31.30;43.00
14670;DHT22;7423;48.722;9.350;2022-08-11T15:05:59;31.30;43.00
14670;DHT22;7423;48.722;9.350;2022-08-11T15:08:29;31.30;43.30
14670;DHT22;7423;48.722;9.350;2022-08-11T15:11:19;31.30;43.60
14670;DHT22;7423;48.722;9.350;2022-08-11T15:14:08;31.30;42.80
14670;DHT22;7423;48.722;9.350;2022-08-11T15:16:39;31.30;41.70
14670;DHT22;7423;48.722;9.350;2022-08-11T15:19:29;31.40;42.20
14670;DHT22;7423;48.722;9.350;2022-08-11T15:22:10;31.40;42.10
14670;DHT22;7423;48.722;9.350;2022-08-11T15:24:58;31.40;42.80
14670;DHT22;7423;48.722;9.350;2022-08-11T15:27:27;31.40;41.70
14670;DHT22;7423;48.722;9.350;2022-08-11T15:30:14;31.40;42.10
14670;DHT22;7423;48.722;9.350;2022-08-11T15:33:04;31.40;42.30
14670;DHT22;7423;48.722;9.350;2022-08-11T15:35:52;31.30;42.00
14670;DHT22;7423;48.722;9.350;2022-08-11T15:38:43;31.30;42.40
14670;DHT22;7423;48.722;9.350;2022-08-11T15:41:15;31.20;40.80
14670;DHT22;7423;48.722;9.350;2022-08-11T15:44:05;31.30;42.20
14670;DHT22;7423;48.722;9.350;2022-08-11T15:47:11;31.20;40.60
14670;DHT22;7423;48.722;9.350;2022-08-11T15:49:40;31.30;42.00
14670;DHT22;7423;48.722;9.350;2022-08-11T15:52:34;31.30;42.60
14670;DHT22;7423;48.722;9.350;2022-08-11T15:55:07;31.30;43.00
14670;DHT22;7423;48.722;9.350;2022-08-11T15:57:36;31.30;42.20
14670;DHT22;7423;48.722;9.350;2022-08-11T16:00:21;31.30;43.10
14670;DHT22;7423;48.722;9.350;2022-08-11T16:03:08;31.30;42.40
14670;DHT22;7423;48.722;9.350;2022-08-11T16:06:14;31.30;41.30
14670;DHT22;7423;48.722;9.350;2022-08-11T16:08:43;31.30;42.90
14670;DHT22;7423;48.722;9.350;2022-08-11T16:11:12;31.30;43.20
14670;DHT22;7423;48.722;9.350;2022-08-11T16:13:39;31.30;41.50
14670;DHT22;7423;48.722;9.350;2022-08-11T16:16:07;31.40;43.40
14670;DHT22;7423;48.722;9.350;2022-08-11T16:18:47;31.30;43.60
14670;DHT22;7423;48.722;9.350;2022-08-11T16:21:26;31.30;43.50
14670;DHT22;7423;48.722;9.350;2022-08-11T16:24:08;31.30;43.20
14670;DHT22;7423;48.722;9.350;2022-08-11T16:26:57;31.30;42.60
14670;DHT22;7423;48.722;9.350;2022-08-11T16:29:41;31.20;42.40
14670;DHT22;7423;48.722;9.350;2022-08-11T16:32:17;31.30;42.70
14670;DHT22;7423;48.722;9.350;2022-08-11T16:34:57;31.20;41.90
14670;DHT22;7423;48.722;9.350;2022-08-11T16:37:46;31.20;42.50
14670;DHT22;7423;48.722;9.350;2022-08-11T16:40:32;31.20;42.10
14670;DHT22;7423;48.722;9.350;2022-08-11T16:43:02;31.40;43.00
14670;DHT22;7423;48.722;9.350;2022-08-11T16:45:52;31.30;42.60
14670;DHT22;7423;48.722;9.350;2022-08-11T16:48:40;31.20;42.50
14670;DHT22;7423;48.722;9.350;2022-08-11T16:51:11;31.10;43.90
14670;DHT22;7423;48.722;9.350;2022-08-11T16:53:39;31.10;43.10
14670;DHT22;7423;48.722;9.350;2022-08-11T16:56:37;31.10;43.20
14670;DHT22;7423;48.722;9.350;2022-08-11T16:59:16;31.10;42.60
14670;DHT22;7423;48.722;9.350;2022-08-11T17:01:50;31.10;42.80
14670;DHT22;7423;48.722;9.350;2022-08-11T17:07:38;31.10;42.50
14670;DHT22;7423;48.722;9.350;2022-08-11T17:10:49;31.10;42.50
14670;DHT22;7423;48.722;9.350;2022-08-11T17:13:51;31.00;42.70
14670;DHT22;7423;48.722;9.350;2022-08-11T17:16:25;31.00;43.50
14670;DHT22;7423;48.722;9.350;2022-08-11T17:19:21;31.00;43.00
14670;DHT22;7423;48.722;9.350;2022-08-11T17:22:09;31.00;44.90
14670;DHT22;7423;48.722;9.350;2022-08-11T17:24:55;31.00;44.10
14670;DHT22;7423;48.722;9.350;2022-08-11T17:27:24;30.90;43.80
14670;DHT22;7423;48.722;9.350;2022-08-11T17:29:57;30.90;43.10
14670;DHT22;7423;48.722;9.350;2022-08-11T17:32:47;30.90;42.70
14670;DHT22;7423;48.722;9.350;2022-08-11T17:35:39;30.80;44.70
14670;DHT22;7423;48.722;9.350;2022-08-11T17:38:18;30.80;43.60
14670;DHT22;7423;48.722;9.350;2022-08-11T17:40:51;30.80;44.20
14670;DHT22;7423;48.722;9.350;2022-08-11T17:43:50;30.70;43.90
14670;DHT22;7423;48.722;9.350;2022-08-11T17:46:37;30.70;43.20
14670;DHT22;7423;48.722;9.350;2022-08-11T17:49:29;30.70;43.40
14670;DHT22;7423;48.722;9.350;2022-08-11T17:52:04;30.60;44.00
14670;DHT22;7423;48.722;9.350;2022-08-11T17:54:51;30.50;43.80
14670;DHT22;7423;48.722;9.350;2022-08-11T17:57:40;30.60;43.50
14670;DHT22;7423;48.722;9.350;2022-08-11T18:00:29;30.50;44.00
14670;DHT22;7423;48.722;9.350;2022-08-11T18:02:58;30.50;43.70
14670;DHT22;7423;48.722;9.350;2022-08-11T18:05:47;30.40;44.30
14670;DHT22;7423;48.722;9.350;2022-08-11T18:08:20;30.30;43.30
14670;DHT22;7423;48.722;9.350;2022-08-11T18:11:18;30.30;44.10
14670;DHT22;7423;48.722;9.350;2022-08-11T18:14:27;30.20;44.50
14670;DHT22;7423;48.722;9.350;2022-08-11T18:17:14;30.10;44.90
14670;DHT22;7423;48.722;9.350;2022-08-11T18:20:04;30.10;44.90
14670;DHT22;7423;48.722;9.350;2022-08-11T18:22:53;30.00;44.70
14670;DHT22;7423;48.722;9.350;2022-08-11T18:25:46;29.90;44.90
14670;DHT22;7423;48.722;9.350;2022-08-11T18:28:42;29.80;45.30
14670;DHT22;7423;48.722;9.350;2022-08-11T18:31:33;29.70;45.20
14670;DHT22;7423;48.722;9.350;2022-08-11T18:34:29;29.70;45.40
14670;DHT22;7423;48.722;9.350;2022-08-11T18:37:18;29.60;45.90
14670;DHT22;7423;48.722;9.350;2022-08-11T18:40:38;29.50;45.80
14670;DHT22;7423;48.722;9.350;2022-08-11T18:43:24;29.40;46.40
14670;DHT22;7423;48.722;9.350;2022-08-11T18:46:12;29.30;46.80
14670;DHT22;7423;48.722;9.350;2022-08-11T18:49:09;29.20;48.60
14670;DHT22;7423;48.722;9.350;2022-08-11T18:52:18;29.10;49.10
14670;DHT22;7423;48.722;9.350;2022-08-11T18:55:10;29.00;49.60
14670;DHT22;7423;48.722;9.350;2022-08-11T18:57:57;28.80;49.80
14670;DHT22;7423;48.722;9.350;2022-08-11T19:00:45;28.70;50.00
14670;DHT22;7423;48.722;9.350;2022-08-11T19:03:32;28.70;50.50
14670;DHT22;7423;48.722;9.350;2022-08-11T19:06:21;28.60;51.00
14670;DHT22;7423;48.722;9.350;2022-08-11T19:09:11;28.50;51.20
14670;DHT22;7423;48.722;9.350;2022-08-11T19:11:59;28.40;51.20
14670;DHT22;7423;48.722;9.350;2022-08-11T19:14:47;28.20;51.40
14670;DHT22;7423;48.722;9.350;2022-08-11T19:17:37;28.20;51.40
14670;DHT22;7423;48.722;9.350;2022-08-11T19:20:27;28.10;51.50
14670;DHT22;7423;48.722;9.350;2022-08-11T19:23:16;28.00;51.80
14670;DHT22;7423;48.722;9.350;2022-08-11T19:26:05;27.80;52.40
14670;DHT22;7423;48.722;9.350;2022-08-11T19:28:52;27.70;52.60
14670;DHT22;7423;48.722;9.350;2022-08-11T19:31:59;27.70;52.80
14670;DHT22;7423;48.722;9.350;2022-08-11T19:34:46;27.60;52.50
14670;DHT22;7423;48.722;9.350;2022-08-11T19:37:33;27.50;52.90
14670;DHT22;7423;48.722;9.350;2022-08-11T19:40:19;27.50;53.50
14670;DHT22;7423;48.722;9.350;2022-08-11T19:43:06;27.30;53.90
14670;DHT22;7423;48.722;9.350;2022-08-11T19:45:56;27.30;53.30
14670;DHT22;7423;48.722;9.350;2022-08-11T19:48:44;27.20;53.80
14670;DHT22;7423;48.722;9.350;2022-08-11T19:51:31;27.20;54.50
14670;DHT22;7423;48.722;9.350;2022-08-11T19:54:23;27.10;54.60
14670;DHT22;7423;48.722;9.350;2022-08-11T19:57:13;27.10;54.90
14670;DHT22;7423;48.722;9.350;2022-08-11T20:00:09;27.00;55.20
14670;DHT22;7423;48.722;9.350;2022-08-11T20:02:59;27.00;55.30
14670;DHT22;7423;48.722;9.350;2022-08-11T20:05:48;26.90;55.40
14670;DHT22;7423;48.722;9.350;2022-08-11T20:08:35;26.80;55.30
14670;DHT22;7423;48.722;9.350;2022-08-11T20:11:26;26.70;55.20
14670;DHT22;7423;48.722;9.350;2022-08-11T20:14:17;26.60;55.50